sensor_id;sensor_type;location;lat;lon;timestamp;temperature;humidity
2002;DHT22;1003;48.002;7.788;2023-12-22T00:02:08;8.40;99.90
2002;DHT22;1003;48.002;7.788;2023-12-22T00:04:35;8.40;99.90
2002;DHT22;1003;48.002;7.788;2023-12-22T00:07:02;8.40;99.90
2002;DHT22;1003;48.002;7.788;2023-12-22T00:09:30;8.40;99.90
2002;DHT22;1003;48.002;7.788;2023-12-22T00:11:56;8.30;99.90
2002;DHT22;1003;48.002;7.788;2023-12-22T00:14:23;8.30;99.90
2002;DHT22;1003;48.002;7.788;2023-12-22T00:16:50;8.20;99.90
2002;DHT22;1003;48.002;7.788;2023-12-22T00:19:18;8.20;99.90
2002;DHT22;1003;48.002;7.788;2023-12-22T00:21:45;8.20;99.90
2002;DHT22;1003;48.002;7.788;2023-12-22T00:24:12;8.20;99.90
2002;DHT22;1003;48.002;7.788;2023-12-22T00:26:39;8.20;99.90
2002;DHT22;1003;48.002;7.788;2023-12-22T00:29:06;8.30;99.90
2002;DHT22;1003;48.002;7.788;2023-12-22T00:31:33;8.30;99.90
2002;DHT22;1003;48.002;7.788;2023-12-22T00:34:00;8.20;99.90
2002;DHT22;1003;48.002;7.788;2023-12-22T00:36:29;8.20;99.90
2002;DHT22;1003;48.002;7.788;2023-12-22T00:38:56;8.20;99.90
2002;DHT22;1003;48.002;7.788;2023-12-22T00:41:22;8.20;99.90
2002;DHT22;1003;48.002;7.788;2023-12-22T00:43:49;8.10;99.90
2002;DHT22;1003;48.002;7.788;2023-12-22T00:46:16;8.20;99.90
2002;DHT22;1003;48.002;7.788;2023-12-22T00:48:44;8.10;99.90
2002;DHT22;1003;48.002;7.788;2023-12-22T00:51:11;8.10;99.90
2002;DHT22;1003;48.002;7.788;2023-12-22T00:53:40;8.10;99.90
2002;DHT22;1003;48.002;7.788;2023-12-22T00:56:07;8.00;99.90
2002;DHT22;1003;48.002;7.788;2023-12-22T00:58:34;7.90;99.90
2002;DHT22;1003;48.002;7.788;2023-12-22T01:01:01;7.90;99.90
2002;DHT22;1003;48.002;7.788;2023-12-22T01:03:27;7.90;99.90
2002;DHT22;1003;48.002;7.788;2023-12-22T01:05:54;7.80;99.90
2002;DHT22;1003;48.002;7.788;2023-12-22T01:08:21;7.80;99.90
2002;DHT22;1003;48.002;7.788;2023-12-22T01:10:49;7.70;99.90
2002;DHT22;1003;48.002;7.788;2023-12-22T01:13:16;7.80;99.90
2002;DHT22;1003;48.002;7.788;2023-12-22T01:15:43;7.70;99.90
2002;DHT22;1003;48.002;7.788;2023-12-22T01:18:10;7.80;99.90
2002;DHT22;1003;48.002;7.788;2023-12-22T01:20:37;7.80;99.90
2002;DHT22;1003;48.002;7.788;2023-12-22T01:23:04;7.80;99.90
2002;DHT22;1003;48.002;7.788;2023-12-22T01:25:31;7.90;99.90
2002;DHT22;1003;48.002;7.788;2023-12-22T01:27:59;8.10;99.90
2002;DHT22;1003;48.002;7.788;2023-12-22T01:30:26;8.10;99.90
2002;DHT22;1003;48.002;7.788;2023-12-22T01:32:53;7.90;99.90
2002;DHT22;1003;48.002;7.788;2023-12-22T01:35:20;7.90;99.90
2002;DHT22;1003;48.002;7.788;2023-12-22T01:37:47;8.00;99.90
2002;DHT22;1003;48.002;7.788;2023-12-22T01:40:14;8.10;99.90
2002;DHT22;1003;48.002;7.788;2023-12-22T01:42:41;8.10;99.90
2002;DHT22;1003;48.002;7.788;2023-12-22T01:45:11;8.10;99.90
2002;DHT22;1003;48.002;7.788;2023-12-22T01:47:38;8.10;99.90
2002;DHT22;1003;48.002;7.788;2023-12-22T01:50:06;8.10;99.90
2002;DHT22;1003;48.002;7.788;2023-12-22T01:52:36;8.30;99.90
2002;DHT22;1003;48.002;7.788;2023-12-22T01:55:04;8.30;99.90
2002;DHT22;1003;48.002;7.788;2023-12-22T01:57:33;8.20;99.90
2002;DHT22;1003;48.002;7.788;2023-12-22T02:00:01;8.10;99.90
2002;DHT22;1003;48.002;7.788;2023-12-22T02:02:30;8.10;99.90
2002;DHT22;1003;48.002;7.788;2023-12-22T02:04:58;8.00;99.90
2002;DHT22;1003;48.002;7.788;2023-12-22T02:07:26;7.90;99.90
2002;DHT22;1003;48.002;7.788;2023-12-22T02:09:54;7.90;99.90
2002;DHT22;1003;48.002;7.788;2023-12-22T02:12:21;7.80;99.90
2002;DHT22;1003;48.002;7.788;2023-12-22T02:14:48;7.80;99.90
2002;DHT22;1003;48.002;7.788;2023-12-22T02:17:20;7.80;99.90
2002;DHT22;1003;48.002;7.788;2023-12-22T02:19:53;7.80;99.90
2002;DHT22;1003;48.002;7.788;2023-12-22T02:22:23;7.80;99.90
2002;DHT22;1003;48.002;7.788;2023-12-22T02:24:51;7.90;99.90
2002;DHT22;1003;48.002;7.788;2023-12-22T02:27:25;7.80;99.90
2002;DHT22;1003;48.002;7.788;2023-12-22T02:30:03;7.80;99.90
2002;DHT22;1003;48.002;7.788;2023-12-22T02:32:37;7.80;99.90
2002;DHT22;1003;48.002;7.788;2023-12-22T02:35:10;7.90;99.90
2002;DHT22;1003;48.002;7.788;2023-12-22T02:37:40;7.90;99.90
2002;DHT22;1003;48.002;7.788;2023-12-22T02:40:09;7.80;99.90
2002;DHT22;1003;48.002;7.788;2023-12-22T02:42:38;7.80;99.90
2002;DHT22;1003;48.002;7.788;2023-12-22T02:45:06;7.70;99.90
2002;DHT22;1003;48.002;7.788;2023-12-22T02:47:40;7.60;99.90
2002;DHT22;1003;48.002;7.788;2023-12-22T02:50:08;7.60;99.90
2002;DHT22;1003;48.002;7.788;2023-12-22T02:52:36;7.50;99.90
2002;DHT22;1003;48.002;7.788;2023-12-22T02:55:03;7.40;99.90
2002;DHT22;1003;48.002;7.788;2023-12-22T02:57:32;7.50;99.90
2002;DHT22;1003;48.002;7.788;2023-12-22T02:59:59;7.40;99.90
2002;DHT22;1003;48.002;7.788;2023-12-22T03:02:26;7.40;99.90
2002;DHT22;1003;48.002;7.788;2023-12-22T03:04:53;7.40;99.90
2002;DHT22;1003;48.002;7.788;2023-12-22T03:07:20;7.40;99.90
2002;DHT22;1003;48.002;7.788;2023-12-22T03:09:47;7.40;99.90
2002;DHT22;1003;48.002;7.788;2023-12-22T03:12:14;7.30;99.90
2002;DHT22;1003;48.002;7.788;2023-12-22T03:14:42;7.40;99.90
2002;DHT22;1003;48.002;7.788;2023-12-22T03:17:09;7.30;99.90
2002;DHT22;1003;48.002;7.788;2023-12-22T03:19:36;7.30;99.90
2002;DHT22;1003;48.002;7.788;2023-12-22T03:22:03;7.40;99.90
2002;DHT22;1003;48.002;7.788;2023-12-22T03:24:30;7.30;99.90
2002;DHT22;1003;48.002;7.788;2023-12-22T03:26:57;7.30;99.90
2002;DHT22;1003;48.002;7.788;2023-12-22T03:29:24;7.30;99.90
2002;DHT22;1003;48.002;7.788;2023-12-22T03:31:52;7.30;99.90
2002;DHT22;1003;48.002;7.788;2023-12-22T03:34:19;7.40;99.90
2002;DHT22;1003;48.002;7.788;2023-12-22T03:36:48;7.40;99.90
2002;DHT22;1003;48.002;7.788;2023-12-22T03:39:14;7.30;99.90
2002;DHT22;1003;48.002;7.788;2023-12-22T03:41:41;7.30;99.90
2002;DHT22;1003;48.002;7.788;2023-12-22T03:44:07;7.30;99.90
2002;DHT22;1003;48.002;7.788;2023-12-22T03:46:34;7.30;99.90
2002;DHT22;1003;48.002;7.788;2023-12-22T03:49:03;7.30;99.90
2002;DHT22;1003;48.002;7.788;2023-12-22T03:51:30;7.40;99.90
2002;DHT22;1003;48.002;7.788;2023-12-22T03:53:56;7.40;99.90
2002;DHT22;1003;48.002;7.788;2023-12-22T03:56:23;7.40;99.90
2002;DHT22;1003;48.002;7.788;2023-12-22T03:58:50;7.40;99.90
2002;DHT22;1003;48.002;7.788;2023-12-22T04:01:17;7.40;99.90
2002;DHT22;1003;48.002;7.788;2023-12-22T04:03:44;7.40;99.90
2002;DHT22;1003;48.002;7.788;2023-12-22T04:06:12;7.40;99.90
2002;DHT22;1003;48.002;7.788;2023-12-22T04:08:39;7.40;99.90
2002;DHT22;1003;48.002;7.788;2023-12-22T04:11:06;7.40;99.90
2002;DHT22;1003;48.002;7.788;2023-12-22T04:13:33;7.40;99.90
2002;DHT22;1003;48.002;7.788;2023-12-22T04:16:00;7.40;99.90
2002;DHT22;1003;48.002;7.788;2023-12-22T04:18:30;7.40;99.90
2002;DHT22;1003;48.002;7.788;2023-12-22T04:20:57;7.30;99.90
2002;DHT22;1003;48.002;7.788;2023-12-22T04:23:25;7.30;99.90
2002;DHT22;1003;48.002;7.788;2023-12-22T04:25:52;7.30;99.90
2002;DHT22;1003;48.002;7.788;2023-12-22T04:28:19;7.30;99.90
2002;DHT22;1003;48.002;7.788;2023-12-22T04:30:46;7.30;99.90
2002;DHT22;1003;48.002;7.788;2023-12-22T04:33:13;7.30;99.90
2002;DHT22;1003;48.002;7.788;2023-12-22T04:35:40;7.30;99.90
2002;DHT22;1003;48.002;7.788;2023-12-22T04:38:07;7.30;99.90
2002;DHT22;1003;48.002;7.788;2023-12-22T04:40:35;7.20;99.90
2002;DHT22;1003;48.002;7.788;2023-12-22T04:43:03;7.30;99.90
2002;DHT22;1003;48.002;7.788;2023-12-22T04:45:30;7.30;99.90
2002;DHT22;1003;48.002;7.788;2023-12-22T04:47:56;7.30;99.90
2002;DHT22;1003;48.002;7.788;2023-12-22T04:50:24;7.30;99.90
2002;DHT22;1003;48.002;7.788;2023-12-22T04:52:50;7.30;99.90
2002;DHT22;1003;48.002;7.788;2023-12-22T04:55:17;7.40;99.90
2002;DHT22;1003;48.002;7.788;2023-12-22T04:57:46;7.50;99.90
2002;DHT22;1003;48.002;7.788;2023-12-22T05:00:13;7.40;99.90
2002;DHT22;1003;48.002;7.788;2023-12-22T05:02:40;7.40;99.90
2002;DHT22;1003;48.002;7.788;2023-12-22T05:05:08;7.50;99.90
2002;DHT22;1003;48.002;7.788;2023-12-22T05:07:35;7.40;99.90
2002;DHT22;1003;48.002;7.788;2023-12-22T05:10:02;7.40;99.90
2002;DHT22;1003;48.002;7.788;2023-12-22T05:12:29;7.40;99.90
2002;DHT22;1003;48.002;7.788;2023-12-22T05:14:58;7.40;99.90
2002;DHT22;1003;48.002;7.788;2023-12-22T05:17:25;7.30;99.90
2002;DHT22;1003;48.002;7.788;2023-12-22T05:19:51;7.20;99.90
2002;DHT22;1003;48.002;7.788;2023-12-22T05:22:18;7.20;99.90
2002;DHT22;1003;48.002;7.788;2023-12-22T05:24:46;7.20;99.90
2002;DHT22;1003;48.002;7.788;2023-12-22T05:27:12;7.30;99.90
2002;DHT22;1003;48.002;7.788;2023-12-22T05:29:39;7.30;99.90
2002;DHT22;1003;48.002;7.788;2023-12-22T05:32:08;7.30;99.90
2002;DHT22;1003;48.002;7.788;2023-12-22T05:34:35;7.30;99.90
2002;DHT22;1003;48.002;7.788;2023-12-22T05:37:02;7.30;99.90
2002;DHT22;1003;48.002;7.788;2023-12-22T05:39:29;7.30;99.90
2002;DHT22;1003;48.002;7.788;2023-12-22T05:41:57;7.30;99.90
2002;DHT22;1003;48.002;7.788;2023-12-22T05:44:24;7.40;99.90
2002;DHT22;1003;48.002;7.788;2023-12-22T05:46:54;7.30;99.90
2002;DHT22;1003;48.002;7.788;2023-12-22T05:49:23;7.20;99.90
2002;DHT22;1003;48.002;7.788;2023-12-22T05:51:51;7.20;99.90
2002;DHT22;1003;48.002;7.788;2023-12-22T05:54:18;7.20;99.90
2002;DHT22;1003;48.002;7.788;2023-12-22T05:56:45;7.30;99.90
2002;DHT22;1003;48.002;7.788;2023-12-22T05:59:12;7.20;99.90
2002;DHT22;1003;48.002;7.788;2023-12-22T06:01:39;7.20;99.90
2002;DHT22;1003;48.002;7.788;2023-12-22T06:04:06;7.20;99.90
2002;DHT22;1003;48.002;7.788;2023-12-22T06:06:36;7.20;99.90
2002;DHT22;1003;48.002;7.788;2023-12-22T06:09:03;7.20;99.90
2002;DHT22;1003;48.002;7.788;2023-12-22T06:11:30;7.20;99.90
2002;DHT22;1003;48.002;7.788;2023-12-22T06:13:57;7.20;99.90
2002;DHT22;1003;48.002;7.788;2023-12-22T06:16:24;7.20;99.90
2002;DHT22;1003;48.002;7.788;2023-12-22T06:18:51;7.20;99.90
2002;DHT22;1003;48.002;7.788;2023-12-22T06:21:18;7.20;99.90
2002;DHT22;1003;48.002;7.788;2023-12-22T06:23:46;7.20;99.90
2002;DHT22;1003;48.002;7.788;2023-12-22T06:26:13;7.20;99.90
2002;DHT22;1003;48.002;7.788;2023-12-22T06:28:40;7.20;99.90
2002;DHT22;1003;48.002;7.788;2023-12-22T06:31:07;7.20;99.90
2002;DHT22;1003;48.002;7.788;2023-12-22T06:33:35;7.20;99.90
2002;DHT22;1003;48.002;7.788;2023-12-22T06:36:01;7.20;99.90
2002;DHT22;1003;48.002;7.788;2023-12-22T06:38:29;7.20;99.90
2002;DHT22;1003;48.002;7.788;2023-12-22T06:40:58;7.20;99.90
2002;DHT22;1003;48.002;7.788;2023-12-22T06:43:25;7.20;99.90
2002;DHT22;1003;48.002;7.788;2023-12-22T06:45:52;7.20;99.90
2002;DHT22;1003;48.002;7.788;2023-12-22T06:48:20;7.30;99.90
2002;DHT22;1003;48.002;7.788;2023-12-22T06:50:47;7.20;99.90
2002;DHT22;1003;48.002;7.788;2023-12-22T06:53:14;7.20;99.90
2002;DHT22;1003;48.002;7.788;2023-12-22T06:55:41;7.20;99.90
2002;DHT22;1003;48.002;7.788;2023-12-22T06:58:09;7.30;99.90
2002;DHT22;1003;48.002;7.788;2023-12-22T07:00:36;7.20;99.90
2002;DHT22;1003;48.002;7.788;2023-12-22T07:03:03;7.20;99.90
2002;DHT22;1003;48.002;7.788;2023-12-22T07:05:34;7.20;99.90
2002;DHT22;1003;48.002;7.788;2023-12-22T07:08:04;7.30;99.90
2002;DHT22;1003;48.002;7.788;2023-12-22T07:10:32;7.30;99.90
2002;DHT22;1003;48.002;7.788;2023-12-22T07:12:59;7.30;99.90
2002;DHT22;1003;48.002;7.788;2023-12-22T07:15:27;7.30;99.90
2002;DHT22;1003;48.002;7.788;2023-12-22T07:17:54;7.30;99.90
2002;DHT22;1003;48.002;7.788;2023-12-22T07:20:21;7.30;99.90
2002;DHT22;1003;48.002;7.788;2023-12-22T07:22:48;7.30;99.90
2002;DHT22;1003;48.002;7.788;2023-12-22T07:25:16;7.30;99.90
2002;DHT22;1003;48.002;7.788;2023-12-22T07:27:45;7.30;99.90
2002;DHT22;1003;48.002;7.788;2023-12-22T07:30:13;7.30;99.90
2002;DHT22;1003;48.002;7.788;2023-12-22T07:32:48;7.20;99.90
2002;DHT22;1003;48.002;7.788;2023-12-22T07:35:17;7.30;99.90
2002;DHT22;1003;48.002;7.788;2023-12-22T07:37:44;7.30;99.90
2002;DHT22;1003;48.002;7.788;2023-12-22T07:40:12;7.30;99.90
2002;DHT22;1003;48.002;7.788;2023-12-22T07:42:38;7.30;99.90
2002;DHT22;1003;48.002;7.788;2023-12-22T07:45:06;7.30;99.90
2002;DHT22;1003;48.002;7.788;2023-12-22T07:47:34;7.30;99.90
2002;DHT22;1003;48.002;7.788;2023-12-22T07:50:03;7.20;99.90
2002;DHT22;1003;48.002;7.788;2023-12-22T07:52:33;7.30;99.90
2002;DHT22;1003;48.002;7.788;2023-12-22T07:55:04;7.20;99.90
2002;DHT22;1003;48.002;7.788;2023-12-22T07:57:32;7.20;99.90
2002;DHT22;1003;48.002;7.788;2023-12-22T07:59:59;7.20;99.90
2002;DHT22;1003;48.002;7.788;2023-12-22T08:02:26;7.20;99.90
2002;DHT22;1003;48.002;7.788;2023-12-22T08:04:53;7.20;99.90
2002;DHT22;1003;48.002;7.788;2023-12-22T08:07:21;7.20;99.90
2002;DHT22;1003;48.002;7.788;2023-12-22T08:09:48;7.20;99.90
2002;DHT22;1003;48.002;7.788;2023-12-22T08:12:15;7.20;99.90
2002;DHT22;1003;48.002;7.788;2023-12-22T08:14:42;7.20;99.90
2002;DHT22;1003;48.002;7.788;2023-12-22T08:17:09;7.20;99.90
2002;DHT22;1003;48.002;7.788;2023-12-22T08:19:38;7.30;99.90
2002;DHT22;1003;48.002;7.788;2023-12-22T08:22:08;7.30;99.90
2002;DHT22;1003;48.002;7.788;2023-12-22T08:24:37;7.30;99.90
2002;DHT22;1003;48.002;7.788;2023-12-22T08:27:04;7.40;99.90
2002;DHT22;1003;48.002;7.788;2023-12-22T08:29:32;7.30;99.90
2002;DHT22;1003;48.002;7.788;2023-12-22T08:31:59;7.40;99.90
2002;DHT22;1003;48.002;7.788;2023-12-22T08:34:26;7.40;99.90
2002;DHT22;1003;48.002;7.788;2023-12-22T08:36:53;7.50;99.90
2002;DHT22;1003;48.002;7.788;2023-12-22T08:39:20;7.50;99.90
2002;DHT22;1003;48.002;7.788;2023-12-22T08:41:51;7.50;99.90
2002;DHT22;1003;48.002;7.788;2023-12-22T08:44:19;7.60;99.90
2002;DHT22;1003;48.002;7.788;2023-12-22T08:46:46;7.50;99.90
2002;DHT22;1003;48.002;7.788;2023-12-22T08:49:12;7.60;99.90
2002;DHT22;1003;48.002;7.788;2023-12-22T08:51:39;7.50;99.90
2002;DHT22;1003;48.002;7.788;2023-12-22T08:54:06;7.60;99.90
2002;DHT22;1003;48.002;7.788;2023-12-22T08:56:33;7.60;99.90
2002;DHT22;1003;48.002;7.788;2023-12-22T08:59:02;7.60;99.90
2002;DHT22;1003;48.002;7.788;2023-12-22T09:01:30;7.60;99.90
2002;DHT22;1003;48.002;7.788;2023-12-22T09:03:57;7.60;99.90
2002;DHT22;1003;48.002;7.788;2023-12-22T09:06:24;7.60;99.90
2002;DHT22;1003;48.002;7.788;2023-12-22T09:08:52;7.60;99.90
2002;DHT22;1003;48.002;7.788;2023-12-22T09:11:20;7.60;99.90
2002;DHT22;1003;48.002;7.788;2023-12-22T09:13:47;7.60;99.90
2002;DHT22;1003;48.002;7.788;2023-12-22T09:16:21;7.60;99.90
2002;DHT22;1003;48.002;7.788;2023-12-22T09:18:48;7.50;99.90
2002;DHT22;1003;48.002;7.788;2023-12-22T09:21:16;7.50;99.90
2002;DHT22;1003;48.002;7.788;2023-12-22T09:23:44;7.60;99.90
2002;DHT22;1003;48.002;7.788;2023-12-22T09:26:12;7.60;99.90
2002;DHT22;1003;48.002;7.788;2023-12-22T09:28:39;7.70;99.90
2002;DHT22;1003;48.002;7.788;2023-12-22T09:31:06;7.70;99.90
2002;DHT22;1003;48.002;7.788;2023-12-22T09:33:35;7.70;99.90
2002;DHT22;1003;48.002;7.788;2023-12-22T09:36:03;7.70;99.90
2002;DHT22;1003;48.002;7.788;2023-12-22T09:38:31;7.70;99.90
2002;DHT22;1003;48.002;7.788;2023-12-22T09:40:58;7.70;99.90
2002;DHT22;1003;48.002;7.788;2023-12-22T09:43:26;7.80;99.90
2002;DHT22;1003;48.002;7.788;2023-12-22T09:45:53;7.80;99.90
2002;DHT22;1003;48.002;7.788;2023-12-22T09:48:22;7.90;99.90
2002;DHT22;1003;48.002;7.788;2023-12-22T09:50:54;7.90;99.90
2002;DHT22;1003;48.002;7.788;2023-12-22T09:53:22;7.90;99.90
2002;DHT22;1003;48.002;7.788;2023-12-22T09:55:55;8.00;99.90
2002;DHT22;1003;48.002;7.788;2023-12-22T09:58:28;8.00;99.90
2002;DHT22;1003;48.002;7.788;2023-12-22T10:00:55;8.00;99.90
2002;DHT22;1003;48.002;7.788;2023-12-22T10:03:24;8.00;99.90
2002;DHT22;1003;48.002;7.788;2023-12-22T10:05:54;8.00;99.90
2002;DHT22;1003;48.002;7.788;2023-12-22T10:08:21;8.00;99.90
2002;DHT22;1003;48.002;7.788;2023-12-22T10:10:49;8.20;99.90
2002;DHT22;1003;48.002;7.788;2023-12-22T10:13:18;8.20;99.90
2002;DHT22;1003;48.002;7.788;2023-12-22T10:15:46;8.20;99.90
2002;DHT22;1003;48.002;7.788;2023-12-22T10:18:14;8.10;99.90
2002;DHT22;1003;48.002;7.788;2023-12-22T10:20:42;8.10;99.90
2002;DHT22;1003;48.002;7.788;2023-12-22T10:23:12;8.10;99.90
2002;DHT22;1003;48.002;7.788;2023-12-22T10:25:40;8.20;99.90
2002;DHT22;1003;48.002;7.788;2023-12-22T10:28:10;8.20;99.90
2002;DHT22;1003;48.002;7.788;2023-12-22T10:30:40;8.20;99.90
2002;DHT22;1003;48.002;7.788;2023-12-22T10:33:07;8.20;99.90
2002;DHT22;1003;48.002;7.788;2023-12-22T10:35:34;8.30;99.90
2002;DHT22;1003;48.002;7.788;2023-12-22T10:38:01;8.40;99.90
2002;DHT22;1003;48.002;7.788;2023-12-22T10:40:31;8.30;99.90
2002;DHT22;1003;48.002;7.788;2023-12-22T10:42:59;8.30;99.90
2002;DHT22;1003;48.002;7.788;2023-12-22T10:45:26;8.40;99.90
2002;DHT22;1003;48.002;7.788;2023-12-22T10:47:56;8.40;99.90
2002;DHT22;1003;48.002;7.788;2023-12-22T10:50:25;8.30;99.90
2002;DHT22;1003;48.002;7.788;2023-12-22T10:52:52;8.30;99.90
2002;DHT22;1003;48.002;7.788;2023-12-22T10:55:19;8.20;99.90
2002;DHT22;1003;48.002;7.788;2023-12-22T10:57:47;8.30;99.90
2002;DHT22;1003;48.002;7.788;2023-12-22T11:00:16;8.20;99.90
2002;DHT22;1003;48.002;7.788;2023-12-22T11:02:48;8.30;99.90
2002;DHT22;1003;48.002;7.788;2023-12-22T11:05:17;8.30;99.90
2002;DHT22;1003;48.002;7.788;2023-12-22T11:07:49;8.40;99.90
2002;DHT22;1003;48.002;7.788;2023-12-22T11:10:19;8.40;99.90
2002;DHT22;1003;48.002;7.788;2023-12-22T11:12:50;8.30;99.90
2002;DHT22;1003;48.002;7.788;2023-12-22T11:15:19;8.40;99.90
2002;DHT22;1003;48.002;7.788;2023-12-22T11:17:48;8.30;99.90
2002;DHT22;1003;48.002;7.788;2023-12-22T11:20:18;8.40;99.90
2002;DHT22;1003;48.002;7.788;2023-12-22T11:22:46;8.50;99.90
2002;DHT22;1003;48.002;7.788;2023-12-22T11:25:17;8.60;99.90
2002;DHT22;1003;48.002;7.788;2023-12-22T11:27:47;8.60;99.90
2002;DHT22;1003;48.002;7.788;2023-12-22T11:30:19;8.50;99.90
2002;DHT22;1003;48.002;7.788;2023-12-22T11:32:49;8.60;99.90
2002;DHT22;1003;48.002;7.788;2023-12-22T11:35:16;8.50;99.90
2002;DHT22;1003;48.002;7.788;2023-12-22T11:37:44;8.50;99.90
2002;DHT22;1003;48.002;7.788;2023-12-22T11:40:12;8.60;99.90
2002;DHT22;1003;48.002;7.788;2023-12-22T11:42:42;8.50;99.90
2002;DHT22;1003;48.002;7.788;2023-12-22T11:45:13;8.60;99.90
2002;DHT22;1003;48.002;7.788;2023-12-22T11:47:42;8.70;99.90
2002;DHT22;1003;48.002;7.788;2023-12-22T11:50:09;8.80;99.90
2002;DHT22;1003;48.002;7.788;2023-12-22T11:52:37;8.70;99.90
2002;DHT22;1003;48.002;7.788;2023-12-22T11:55:05;8.70;99.90
2002;DHT22;1003;48.002;7.788;2023-12-22T11:57:34;8.80;99.90
2002;DHT22;1003;48.002;7.788;2023-12-22T12:00:05;8.80;99.90
2002;DHT22;1003;48.002;7.788;2023-12-22T12:02:36;8.80;99.90
2002;DHT22;1003;48.002;7.788;2023-12-22T12:05:06;8.80;99.90
2002;DHT22;1003;48.002;7.788;2023-12-22T12:07:44;8.90;99.90
2002;DHT22;1003;48.002;7.788;2023-12-22T12:13:22;8.80;99.90
2002;DHT22;1003;48.002;7.788;2023-12-22T12:15:51;8.90;99.90
2002;DHT22;1003;48.002;7.788;2023-12-22T12:18:23;8.90;99.90
2002;DHT22;1003;48.002;7.788;2023-12-22T12:20:50;9.00;99.90
2002;DHT22;1003;48.002;7.788;2023-12-22T12:23:17;9.00;99.90
2002;DHT22;1003;48.002;7.788;2023-12-22T12:25:44;9.10;99.90
2002;DHT22;1003;48.002;7.788;2023-12-22T12:28:11;9.10;99.90
2002;DHT22;1003;48.002;7.788;2023-12-22T12:30:40;9.10;99.90
2002;DHT22;1003;48.002;7.788;2023-12-22T12:33:08;9.20;99.90
2002;DHT22;1003;48.002;7.788;2023-12-22T12:35:37;9.30;99.90
2002;DHT22;1003;48.002;7.788;2023-12-22T12:38:06;9.30;99.90
2002;DHT22;1003;48.002;7.788;2023-12-22T12:40:33;9.30;99.90
2002;DHT22;1003;48.002;7.788;2023-12-22T12:43:06;9.40;99.90
2002;DHT22;1003;48.002;7.788;2023-12-22T12:45:33;9.40;99.90
2002;DHT22;1003;48.002;7.788;2023-12-22T12:48:01;9.40;99.90
2002;DHT22;1003;48.002;7.788;2023-12-22T12:50:29;9.40;99.90
2002;DHT22;1003;48.002;7.788;2023-12-22T12:52:58;9.40;99.90
2002;DHT22;1003;48.002;7.788;2023-12-22T12:55:26;9.60;99.90
2002;DHT22;1003;48.002;7.788;2023-12-22T12:57:55;9.60;99.90
2002;DHT22;1003;48.002;7.788;2023-12-22T13:00:24;9.40;99.90
2002;DHT22;1003;48.002;7.788;2023-12-22T13:02:53;9.40;99.90
2002;DHT22;1003;48.002;7.788;2023-12-22T13:05:22;9.40;99.90
2002;DHT22;1003;48.002;7.788;2023-12-22T13:07:49;9.50;99.90
2002;DHT22;1003;48.002;7.788;2023-12-22T13:10:21;9.40;99.90
2002;DHT22;1003;48.002;7.788;2023-12-22T13:12:49;9.30;99.90
2002;DHT22;1003;48.002;7.788;2023-12-22T13:15:19;9.40;99.90
2002;DHT22;1003;48.002;7.788;2023-12-22T13:17:46;9.40;99.90
2002;DHT22;1003;48.002;7.788;2023-12-22T13:20:14;9.40;99.90
2002;DHT22;1003;48.002;7.788;2023-12-22T13:22:41;9.40;99.90
2002;DHT22;1003;48.002;7.788;2023-12-22T13:25:09;9.40;99.90
2002;DHT22;1003;48.002;7.788;2023-12-22T13:27:48;9.50;99.90
2002;DHT22;1003;48.002;7.788;2023-12-22T13:30:32;9.40;99.90
2002;DHT22;1003;48.002;7.788;2023-12-22T13:32:59;9.40;99.90
2002;DHT22;1003;48.002;7.788;2023-12-22T13:35:26;9.30;99.90
2002;DHT22;1003;48.002;7.788;2023-12-22T13:37:54;9.20;99.90
2002;DHT22;1003;48.002;7.788;2023-12-22T13:40:21;9.20;99.90
2002;DHT22;1003;48.002;7.788;2023-12-22T13:42:55;9.20;99.90
2002;DHT22;1003;48.002;7.788;2023-12-22T13:45:24;9.30;99.90
2002;DHT22;1003;48.002;7.788;2023-12-22T13:47:51;9.20;99.90
2002;DHT22;1003;48.002;7.788;2023-12-22T13:50:18;9.20;99.90
2002;DHT22;1003;48.002;7.788;2023-12-22T13:52:48;9.10;99.90
2002;DHT22;1003;48.002;7.788;2023-12-22T13:55:17;9.00;99.90
2002;DHT22;1003;48.002;7.788;2023-12-22T13:57:45;9.00;99.90
2002;DHT22;1003;48.002;7.788;2023-12-22T14:00:28;9.00;99.90
2002;DHT22;1003;48.002;7.788;2023-12-22T14:02:56;9.00;99.90
2002;DHT22;1003;48.002;7.788;2023-12-22T14:05:24;9.00;99.90
2002;DHT22;1003;48.002;7.788;2023-12-22T14:07:52;9.00;99.90
2002;DHT22;1003;48.002;7.788;2023-12-22T14:10:19;9.00;99.90
2002;DHT22;1003;48.002;7.788;2023-12-22T14:12:46;9.00;99.90
2002;DHT22;1003;48.002;7.788;2023-12-22T14:15:13;9.00;99.90
2002;DHT22;1003;48.002;7.788;2023-12-22T14:17:43;9.10;99.90
2002;DHT22;1003;48.002;7.788;2023-12-22T14:20:10;9.10;99.90
2002;DHT22;1003;48.002;7.788;2023-12-22T14:22:37;9.10;99.90
2002;DHT22;1003;48.002;7.788;2023-12-22T14:25:05;9.20;99.90
2002;DHT22;1003;48.002;7.788;2023-12-22T14:27:32;9.10;99.90
2002;DHT22;1003;48.002;7.788;2023-12-22T14:29:59;9.10;99.90
2002;DHT22;1003;48.002;7.788;2023-12-22T14:32:26;9.10;99.90
2002;DHT22;1003;48.002;7.788;2023-12-22T14:34:56;9.20;99.90
2002;DHT22;1003;48.002;7.788;2023-12-22T14:37:23;9.10;99.90
2002;DHT22;1003;48.002;7.788;2023-12-22T14:39:50;9.20;99.90
2002;DHT22;1003;48.002;7.788;2023-12-22T14:42:17;9.10;99.90
2002;DHT22;1003;48.002;7.788;2023-12-22T14:44:44;9.10;99.90
2002;DHT22;1003;48.002;7.788;2023-12-22T14:47:11;9.20;99.90
2002;DHT22;1003;48.002;7.788;2023-12-22T14:49:38;9.20;99.90
2002;DHT22;1003;48.002;7.788;2023-12-22T14:52:06;9.10;99.90
2002;DHT22;1003;48.002;7.788;2023-12-22T14:54:33;9.10;99.90
2002;DHT22;1003;48.002;7.788;2023-12-22T14:57:00;9.10;99.90
2002;DHT22;1003;48.002;7.788;2023-12-22T14:59:27;9.10;99.90
2002;DHT22;1003;48.002;7.788;2023-12-22T15:01:54;9.10;99.90
2002;DHT22;1003;48.002;7.788;2023-12-22T15:04:22;9.00;99.90
2002;DHT22;1003;48.002;7.788;2023-12-22T15:06:49;9.00;99.90
2002;DHT22;1003;48.002;7.788;2023-12-22T15:09:18;9.00;99.90
2002;DHT22;1003;48.002;7.788;2023-12-22T15:11:46;9.00;99.90
2002;DHT22;1003;48.002;7.788;2023-12-22T15:14:13;9.00;99.90
2002;DHT22;1003;48.002;7.788;2023-12-22T15:16:40;9.10;99.90
2002;DHT22;1003;48.002;7.788;2023-12-22T15:19:10;9.00;99.90
2002;DHT22;1003;48.002;7.788;2023-12-22T15:21:37;9.00;99.90
2002;DHT22;1003;48.002;7.788;2023-12-22T15:24:05;9.00;99.90
2002;DHT22;1003;48.002;7.788;2023-12-22T15:26:34;9.00;99.90
2002;DHT22;1003;48.002;7.788;2023-12-22T15:29:01;9.00;99.90
2002;DHT22;1003;48.002;7.788;2023-12-22T15:31:29;9.00;99.90
2002;DHT22;1003;48.002;7.788;2023-12-22T15:33:56;9.00;99.90
2002;DHT22;1003;48.002;7.788;2023-12-22T15:36:24;9.00;99.90
2002;DHT22;1003;48.002;7.788;2023-12-22T15:38:52;8.90;99.90
2002;DHT22;1003;48.002;7.788;2023-12-22T15:41:19;8.90;99.90
2002;DHT22;1003;48.002;7.788;2023-12-22T15:43:48;8.90;99.90
2002;DHT22;1003;48.002;7.788;2023-12-22T15:46:15;8.90;99.90
2002;DHT22;1003;48.002;7.788;2023-12-22T15:48:42;8.80;99.90
2002;DHT22;1003;48.002;7.788;2023-12-22T15:51:12;8.80;99.90
2002;DHT22;1003;48.002;7.788;2023-12-22T15:53:40;8.80;99.90
2002;DHT22;1003;48.002;7.788;2023-12-22T15:56:07;8.90;99.90
2002;DHT22;1003;48.002;7.788;2023-12-22T15:58:37;8.80;99.90
2002;DHT22;1003;48.002;7.788;2023-12-22T16:01:07;8.80;99.90
2002;DHT22;1003;48.002;7.788;2023-12-22T16:03:37;8.90;99.90
2002;DHT22;1003;48.002;7.788;2023-12-22T16:06:05;8.80;99.90
2002;DHT22;1003;48.002;7.788;2023-12-22T16:08:32;8.80;99.90
2002;DHT22;1003;48.002;7.788;2023-12-22T16:11:01;8.80;99.90
2002;DHT22;1003;48.002;7.788;2023-12-22T16:13:28;8.80;99.90
2002;DHT22;1003;48.002;7.788;2023-12-22T16:15:55;8.80;99.90
2002;DHT22;1003;48.002;7.788;2023-12-22T16:18:23;8.70;99.90
2002;DHT22;1003;48.002;7.788;2023-12-22T16:20:50;8.80;99.90
2002;DHT22;1003;48.002;7.788;2023-12-22T16:23:17;8.70;99.90
2002;DHT22;1003;48.002;7.788;2023-12-22T16:25:47;8.70;99.90